sensor_id;sensor_type;location;lat;lon;timestamp;temperature;humidity
1455;DHT22;721;48.168;12.818;2023-02-13T00:02:15;2.50;59.40
1455;DHT22;721;48.168;12.818;2023-02-13T00:04:42;2.30;62.10
1455;DHT22;721;48.168;12.818;2023-02-13T00:07:09;2.30;62.60
1455;DHT22;721;48.168;12.818;2023-02-13T00:09:36;2.10;62.90
1455;DHT22;721;48.168;12.818;2023-02-13T00:12:03;2.10;65.70
1455;DHT22;721;48.168;12.818;2023-02-13T00:14:33;2.20;64.60
1455;DHT22;721;48.168;12.818;2023-02-13T00:17:01;2.30;63.00
1455;DHT22;721;48.168;12.818;2023-02-13T00:19:28;2.10;61.70
1455;DHT22;721;48.168;12.818;2023-02-13T00:21:55;2.00;62.70
1455;DHT22;721;48.168;12.818;2023-02-13T00:24:22;2.00;65.10
1455;DHT22;721;48.168;12.818;2023-02-13T00:26:49;2.00;64.20
1455;DHT22;721;48.168;12.818;2023-02-13T00:29:16;2.10;63.30
1455;DHT22;721;48.168;12.818;2023-02-13T00:31:42;2.10;63.10
1455;DHT22;721;48.168;12.818;2023-02-13T00:34:10;1.90;63.50
1455;DHT22;721;48.168;12.818;2023-02-13T00:36:37;1.80;63.80
1455;DHT22;721;48.168;12.818;2023-02-13T00:39:04;1.60;65.20
1455;DHT22;721;48.168;12.818;2023-02-13T00:41:31;1.40;67.80
1455;DHT22;721;48.168;12.818;2023-02-13T00:43:57;1.20;69.80
1455;DHT22;721;48.168;12.818;2023-02-13T00:46:24;1.30;72.10
1455;DHT22;721;48.168;12.818;2023-02-13T00:48:51;1.40;70.20
1455;DHT22;721;48.168;12.818;2023-02-13T00:51:19;1.40;72.30
1455;DHT22;721;48.168;12.818;2023-02-13T00:53:46;1.20;70.50
1455;DHT22;721;48.168;12.818;2023-02-13T00:56:13;1.00;72.10
1455;DHT22;721;48.168;12.818;2023-02-13T00:58:39;1.00;73.80
1455;DHT22;721;48.168;12.818;2023-02-13T01:01:06;1.10;73.40
1455;DHT22;721;48.168;12.818;2023-02-13T01:03:33;1.10;73.50
1455;DHT22;721;48.168;12.818;2023-02-13T01:06:00;1.00;74.40
1455;DHT22;721;48.168;12.818;2023-02-13T01:08:28;1.10;73.60
1455;DHT22;721;48.168;12.818;2023-02-13T01:10:55;1.30;73.60
1455;DHT22;721;48.168;12.818;2023-02-13T01:13:22;1.40;71.60
1455;DHT22;721;48.168;12.818;2023-02-13T01:15:49;1.30;68.40
1455;DHT22;721;48.168;12.818;2023-02-13T01:18:18;1.30;69.60
1455;DHT22;721;48.168;12.818;2023-02-13T01:20:55;1.30;66.90
1455;DHT22;721;48.168;12.818;2023-02-13T01:23:22;1.20;68.50
1455;DHT22;721;48.168;12.818;2023-02-13T01:25:50;1.20;68.30
1455;DHT22;721;48.168;12.818;2023-02-13T01:28:17;1.30;68.00
1455;DHT22;721;48.168;12.818;2023-02-13T01:30:44;1.40;68.30
1455;DHT22;721;48.168;12.818;2023-02-13T01:33:11;1.50;66.10
1455;DHT22;721;48.168;12.818;2023-02-13T01:35:38;1.50;66.50
1455;DHT22;721;48.168;12.818;2023-02-13T01:38:05;1.50;64.60
1455;DHT22;721;48.168;12.818;2023-02-13T01:40:31;1.50;62.70
1455;DHT22;721;48.168;12.818;2023-02-13T01:42:59;1.50;62.10
1455;DHT22;721;48.168;12.818;2023-02-13T01:45:28;1.30;63.10
1455;DHT22;721;48.168;12.818;2023-02-13T01:47:57;1.30;63.00
1455;DHT22;721;48.168;12.818;2023-02-13T01:50:31;1.30;61.00
1455;DHT22;721;48.168;12.818;2023-02-13T01:53:03;1.30;63.00
1455;DHT22;721;48.168;12.818;2023-02-13T01:55:31;1.10;64.50
1455;DHT22;721;48.168;12.818;2023-02-13T01:58:08;1.00;65.20
1455;DHT22;721;48.168;12.818;2023-02-13T02:00:36;1.10;66.10
1455;DHT22;721;48.168;12.818;2023-02-13T02:03:08;1.20;66.00
1455;DHT22;721;48.168;12.818;2023-02-13T02:05:36;1.30;63.60
1455;DHT22;721;48.168;12.818;2023-02-13T02:08:08;1.20;64.30
1455;DHT22;721;48.168;12.818;2023-02-13T02:10:36;1.30;63.00
1455;DHT22;721;48.168;12.818;2023-02-13T02:13:09;0.90;63.50
1455;DHT22;721;48.168;12.818;2023-02-13T02:15:37;1.10;65.10
1455;DHT22;721;48.168;12.818;2023-02-13T02:18:05;1.20;65.40
1455;DHT22;721;48.168;12.818;2023-02-13T02:20:51;1.10;64.70
1455;DHT22;721;48.168;12.818;2023-02-13T02:23:46;1.20;64.80
1455;DHT22;721;48.168;12.818;2023-02-13T02:29:43;1.30;64.80
1455;DHT22;721;48.168;12.818;2023-02-13T02:32:31;1.20;63.80
1455;DHT22;721;48.168;12.818;2023-02-13T02:35:12;1.10;62.70
1455;DHT22;721;48.168;12.818;2023-02-13T02:37:58;1.10;64.70
1455;DHT22;721;48.168;12.818;2023-02-13T02:40:36;1.10;65.20
1455;DHT22;721;48.168;12.818;2023-02-13T02:43:16;1.20;64.90
1455;DHT22;721;48.168;12.818;2023-02-13T02:45:52;1.30;63.90
1455;DHT22;721;48.168;12.818;2023-02-13T02:48:27;1.30;63.50
1455;DHT22;721;48.168;12.818;2023-02-13T02:51:18;1.40;61.90
1455;DHT22;721;48.168;12.818;2023-02-13T02:54:00;1.50;61.50
1455;DHT22;721;48.168;12.818;2023-02-13T02:56:49;1.50;57.80
1455;DHT22;721;48.168;12.818;2023-02-13T02:59:17;1.20;61.30
1455;DHT22;721;48.168;12.818;2023-02-13T03:02:04;1.30;61.30
1455;DHT22;721;48.168;12.818;2023-02-13T03:04:52;1.10;63.40
1455;DHT22;721;48.168;12.818;2023-02-13T03:07:37;1.20;64.20
1455;DHT22;721;48.168;12.818;2023-02-13T03:10:07;1.20;62.20
1455;DHT22;721;48.168;12.818;2023-02-13T03:12:56;1.20;62.80
1455;DHT22;721;48.168;12.818;2023-02-13T03:15:49;1.20;63.00
1455;DHT22;721;48.168;12.818;2023-02-13T03:18:36;1.10;63.00
1455;DHT22;721;48.168;12.818;2023-02-13T03:21:27;1.00;65.70
1455;DHT22;721;48.168;12.818;2023-02-13T03:24:21;0.80;66.90
1455;DHT22;721;48.168;12.818;2023-02-13T03:26:55;0.80;69.10
1455;DHT22;721;48.168;12.818;2023-02-13T03:29:35;0.90;69.60
1455;DHT22;721;48.168;12.818;2023-02-13T03:32:26;0.80;68.60
1455;DHT22;721;48.168;12.818;2023-02-13T03:35:03;0.70;69.10
1455;DHT22;721;48.168;12.818;2023-02-13T03:37:59;0.80;69.80
1455;DHT22;721;48.168;12.818;2023-02-13T03:40:30;0.90;69.20
1455;DHT22;721;48.168;12.818;2023-02-13T03:43:07;1.00;68.00
1455;DHT22;721;48.168;12.818;2023-02-13T03:45:37;0.90;67.30
1455;DHT22;721;48.168;12.818;2023-02-13T03:48:26;1.00;66.20
1455;DHT22;721;48.168;12.818;2023-02-13T03:51:16;1.00;66.50
1455;DHT22;721;48.168;12.818;2023-02-13T03:53:49;1.10;65.30
1455;DHT22;721;48.168;12.818;2023-02-13T03:56:18;1.20;64.30
1455;DHT22;721;48.168;12.818;2023-02-13T03:59:07;1.10;60.80
1455;DHT22;721;48.168;12.818;2023-02-13T04:01:47;0.90;65.10
1455;DHT22;721;48.168;12.818;2023-02-13T04:04:20;1.00;65.50
1455;DHT22;721;48.168;12.818;2023-02-13T04:06:51;1.00;63.90
1455;DHT22;721;48.168;12.818;2023-02-13T04:09:22;1.00;63.40
1455;DHT22;721;48.168;12.818;2023-02-13T04:11:55;0.90;63.60
1455;DHT22;721;48.168;12.818;2023-02-13T04:14:26;1.10;63.30
1455;DHT22;721;48.168;12.818;2023-02-13T04:16:56;1.10;62.10
1455;DHT22;721;48.168;12.818;2023-02-13T04:19:25;1.10;61.10
1455;DHT22;721;48.168;12.818;2023-02-13T04:21:55;1.10;61.00
1455;DHT22;721;48.168;12.818;2023-02-13T04:24:24;1.10;60.90
1455;DHT22;721;48.168;12.818;2023-02-13T04:26:51;1.10;60.10
1455;DHT22;721;48.168;12.818;2023-02-13T04:29:19;0.90;62.00
1455;DHT22;721;48.168;12.818;2023-02-13T04:31:46;0.80;63.00
1455;DHT22;721;48.168;12.818;2023-02-13T04:34:13;0.90;64.20
1455;DHT22;721;48.168;12.818;2023-02-13T04:36:40;0.90;64.10
1455;DHT22;721;48.168;12.818;2023-02-13T04:39:07;1.00;60.90
1455;DHT22;721;48.168;12.818;2023-02-13T04:41:36;0.90;62.90
1455;DHT22;721;48.168;12.818;2023-02-13T04:44:03;0.90;62.90
1455;DHT22;721;48.168;12.818;2023-02-13T04:46:30;0.70;62.50
1455;DHT22;721;48.168;12.818;2023-02-13T04:48:56;0.80;64.60
1455;DHT22;721;48.168;12.818;2023-02-13T04:51:23;0.90;64.10
1455;DHT22;721;48.168;12.818;2023-02-13T04:53:50;0.90;63.30
1455;DHT22;721;48.168;12.818;2023-02-13T04:56:17;0.90;64.00
1455;DHT22;721;48.168;12.818;2023-02-13T04:58:45;0.90;64.20
1455;DHT22;721;48.168;12.818;2023-02-13T05:01:12;0.90;63.70
1455;DHT22;721;48.168;12.818;2023-02-13T05:03:39;0.90;62.90
1455;DHT22;721;48.168;12.818;2023-02-13T05:06:06;0.80;62.90
1455;DHT22;721;48.168;12.818;2023-02-13T05:08:33;0.70;63.60
1455;DHT22;721;48.168;12.818;2023-02-13T05:10:59;0.70;64.70
1455;DHT22;721;48.168;12.818;2023-02-13T05:13:26;0.90;65.70
1455;DHT22;721;48.168;12.818;2023-02-13T05:15:54;0.70;64.00
1455;DHT22;721;48.168;12.818;2023-02-13T05:18:21;0.70;65.80
1455;DHT22;721;48.168;12.818;2023-02-13T05:20:48;0.70;66.20
1455;DHT22;721;48.168;12.818;2023-02-13T05:23:35;0.80;64.70
1455;DHT22;721;48.168;12.818;2023-02-13T05:26:00;0.60;64.20
1455;DHT22;721;48.168;12.818;2023-02-13T05:28:27;0.70;66.10
1455;DHT22;721;48.168;12.818;2023-02-13T05:31:13;0.70;66.00
1455;DHT22;721;48.168;12.818;2023-02-13T05:33:39;0.70;64.50
1455;DHT22;721;48.168;12.818;2023-02-13T05:36:07;0.70;65.00
1455;DHT22;721;48.168;12.818;2023-02-13T05:38:34;0.60;64.40
1455;DHT22;721;48.168;12.818;2023-02-13T05:41:01;0.40;67.20
1455;DHT22;721;48.168;12.818;2023-02-13T05:43:28;0.50;66.50
1455;DHT22;721;48.168;12.818;2023-02-13T05:46:01;0.50;67.30
1455;DHT22;721;48.168;12.818;2023-02-13T05:48:30;0.60;64.90
1455;DHT22;721;48.168;12.818;2023-02-13T05:50:56;0.60;64.70
1455;DHT22;721;48.168;12.818;2023-02-13T05:53:23;0.60;63.00
1455;DHT22;721;48.168;12.818;2023-02-13T05:55:50;0.60;63.90
1455;DHT22;721;48.168;12.818;2023-02-13T05:58:17;0.60;64.80
1455;DHT22;721;48.168;12.818;2023-02-13T06:00:44;0.60;63.60
1455;DHT22;721;48.168;12.818;2023-02-13T06:03:11;0.70;62.60
1455;DHT22;721;48.168;12.818;2023-02-13T06:05:39;0.70;62.20
1455;DHT22;721;48.168;12.818;2023-02-13T06:08:06;0.70;60.80
1455;DHT22;721;48.168;12.818;2023-02-13T06:10:33;0.60;62.40
1455;DHT22;721;48.168;12.818;2023-02-13T06:13:00;0.50;64.70
1455;DHT22;721;48.168;12.818;2023-02-13T06:15:26;0.50;65.70
1455;DHT22;721;48.168;12.818;2023-02-13T06:17:53;0.60;65.90
1455;DHT22;721;48.168;12.818;2023-02-13T06:20:20;0.50;65.20
1455;DHT22;721;48.168;12.818;2023-02-13T06:22:48;0.50;64.00
1455;DHT22;721;48.168;12.818;2023-02-13T06:25:16;0.50;63.70
1455;DHT22;721;48.168;12.818;2023-02-13T06:27:43;0.30;64.30
1455;DHT22;721;48.168;12.818;2023-02-13T06:30:28;0.30;65.20
1455;DHT22;721;48.168;12.818;2023-02-13T06:32:55;0.70;64.90
1455;DHT22;721;48.168;12.818;2023-02-13T06:35:22;0.30;63.40
1455;DHT22;721;48.168;12.818;2023-02-13T06:37:50;0.30;64.00
1455;DHT22;721;48.168;12.818;2023-02-13T06:40:17;0.40;64.70
1455;DHT22;721;48.168;12.818;2023-02-13T06:42:44;0.40;61.70
1455;DHT22;721;48.168;12.818;2023-02-13T06:45:12;0.40;63.10
1455;DHT22;721;48.168;12.818;2023-02-13T06:47:41;0.40;61.10
1455;DHT22;721;48.168;12.818;2023-02-13T06:50:08;0.30;62.30
1455;DHT22;721;48.168;12.818;2023-02-13T06:52:36;0.40;63.90
1455;DHT22;721;48.168;12.818;2023-02-13T06:55:04;0.50;63.40
1455;DHT22;721;48.168;12.818;2023-02-13T06:57:31;0.60;63.20
1455;DHT22;721;48.168;12.818;2023-02-13T06:59:58;0.60;61.80
1455;DHT22;721;48.168;12.818;2023-02-13T07:02:25;0.60;62.40
1455;DHT22;721;48.168;12.818;2023-02-13T07:04:52;0.60;61.40
1455;DHT22;721;48.168;12.818;2023-02-13T07:07:18;0.60;62.70
1455;DHT22;721;48.168;12.818;2023-02-13T07:09:46;0.60;61.70
1455;DHT22;721;48.168;12.818;2023-02-13T07:12:14;0.50;62.90
1455;DHT22;721;48.168;12.818;2023-02-13T07:14:41;0.60;64.50
1455;DHT22;721;48.168;12.818;2023-02-13T07:17:07;0.70;63.80
1455;DHT22;721;48.168;12.818;2023-02-13T07:19:35;0.60;62.70
1455;DHT22;721;48.168;12.818;2023-02-13T07:22:02;0.60;64.90
1455;DHT22;721;48.168;12.818;2023-02-13T07:24:29;0.60;65.70
1455;DHT22;721;48.168;12.818;2023-02-13T07:26:58;0.80;64.10
1455;DHT22;721;48.168;12.818;2023-02-13T07:29:26;0.70;63.50
1455;DHT22;721;48.168;12.818;2023-02-13T07:31:53;0.70;65.00
1455;DHT22;721;48.168;12.818;2023-02-13T07:34:19;0.70;63.90
1455;DHT22;721;48.168;12.818;2023-02-13T07:36:46;0.70;64.00
1455;DHT22;721;48.168;12.818;2023-02-13T07:39:13;0.70;64.30
1455;DHT22;721;48.168;12.818;2023-02-13T07:41:40;0.70;63.40
1455;DHT22;721;48.168;12.818;2023-02-13T07:44:06;0.60;63.30
1455;DHT22;721;48.168;12.818;2023-02-13T07:46:35;0.60;65.10
1455;DHT22;721;48.168;12.818;2023-02-13T07:49:02;0.60;65.50
1455;DHT22;721;48.168;12.818;2023-02-13T07:51:29;0.60;67.90
1455;DHT22;721;48.168;12.818;2023-02-13T07:53:56;0.60;67.30
1455;DHT22;721;48.168;12.818;2023-02-13T07:56:23;0.60;67.20
1455;DHT22;721;48.168;12.818;2023-02-13T07:58:50;0.60;67.80
1455;DHT22;721;48.168;12.818;2023-02-13T08:01:17;0.60;66.90
1455;DHT22;721;48.168;12.818;2023-02-13T08:03:48;0.50;66.00
1455;DHT22;721;48.168;12.818;2023-02-13T08:06:17;0.60;67.90
1455;DHT22;721;48.168;12.818;2023-02-13T08:08:44;0.70;67.80
1455;DHT22;721;48.168;12.818;2023-02-13T08:11:21;0.60;68.30
1455;DHT22;721;48.168;12.818;2023-02-13T08:14:07;0.50;67.90
1455;DHT22;721;48.168;12.818;2023-02-13T08:16:34;0.50;67.40
1455;DHT22;721;48.168;12.818;2023-02-13T08:19:02;0.50;69.50
1455;DHT22;721;48.168;12.818;2023-02-13T08:21:29;0.60;67.70
1455;DHT22;721;48.168;12.818;2023-02-13T08:23:56;0.50;68.90
1455;DHT22;721;48.168;12.818;2023-02-13T08:26:24;0.60;67.70
1455;DHT22;721;48.168;12.818;2023-02-13T08:28:51;0.60;67.80
1455;DHT22;721;48.168;12.818;2023-02-13T08:31:29;0.60;69.00
1455;DHT22;721;48.168;12.818;2023-02-13T08:33:56;0.70;69.00
1455;DHT22;721;48.168;12.818;2023-02-13T08:36:24;0.70;66.80
1455;DHT22;721;48.168;12.818;2023-02-13T08:38:51;0.70;66.20
1455;DHT22;721;48.168;12.818;2023-02-13T08:41:18;0.80;69.10
1455;DHT22;721;48.168;12.818;2023-02-13T08:43:47;0.70;68.10
1455;DHT22;721;48.168;12.818;2023-02-13T08:46:13;0.80;65.90
1455;DHT22;721;48.168;12.818;2023-02-13T08:48:40;0.70;66.00
1455;DHT22;721;48.168;12.818;2023-02-13T08:51:07;0.80;67.20
1455;DHT22;721;48.168;12.818;2023-02-13T08:53:36;0.90;65.10
1455;DHT22;721;48.168;12.818;2023-02-13T08:56:04;0.80;66.50
1455;DHT22;721;48.168;12.818;2023-02-13T08:58:31;1.00;65.80
1455;DHT22;721;48.168;12.818;2023-02-13T09:00:58;1.00;63.80
1455;DHT22;721;48.168;12.818;2023-02-13T09:03:24;0.80;63.50
1455;DHT22;721;48.168;12.818;2023-02-13T09:05:51;0.90;66.20
1455;DHT22;721;48.168;12.818;2023-02-13T09:08:18;1.00;66.20
1455;DHT22;721;48.168;12.818;2023-02-13T09:10:46;1.00;62.50
1455;DHT22;721;48.168;12.818;2023-02-13T09:13:14;1.00;61.70
1455;DHT22;721;48.168;12.818;2023-02-13T09:15:41;1.00;62.40
1455;DHT22;721;48.168;12.818;2023-02-13T09:18:08;1.00;62.90
1455;DHT22;721;48.168;12.818;2023-02-13T09:20:35;1.00;62.20
1455;DHT22;721;48.168;12.818;2023-02-13T09:23:02;1.10;63.00
1455;DHT22;721;48.168;12.818;2023-02-13T09:25:28;1.10;63.10
1455;DHT22;721;48.168;12.818;2023-02-13T09:27:58;0.90;61.00
1455;DHT22;721;48.168;12.818;2023-02-13T09:30:25;0.80;65.00
1455;DHT22;721;48.168;12.818;2023-02-13T09:32:52;0.80;64.10
1455;DHT22;721;48.168;12.818;2023-02-13T09:35:20;0.80;68.40
1455;DHT22;721;48.168;12.818;2023-02-13T09:37:47;0.90;67.60
1455;DHT22;721;48.168;12.818;2023-02-13T09:40:18;0.90;68.30
1455;DHT22;721;48.168;12.818;2023-02-13T09:42:46;1.00;65.20
1455;DHT22;721;48.168;12.818;2023-02-13T09:45:16;1.10;66.20
1455;DHT22;721;48.168;12.818;2023-02-13T09:50:23;1.00;68.10
1455;DHT22;721;48.168;12.818;2023-02-13T09:52:53;1.00;67.70
1455;DHT22;721;48.168;12.818;2023-02-13T09:55:23;1.00;68.80
1455;DHT22;721;48.168;12.818;2023-02-13T09:57:57;1.10;68.90
1455;DHT22;721;48.168;12.818;2023-02-13T10:00:32;1.20;68.00
1455;DHT22;721;48.168;12.818;2023-02-13T10:03:27;1.40;67.80
1455;DHT22;721;48.168;12.818;2023-02-13T10:06:02;1.60;63.00
1455;DHT22;721;48.168;12.818;2023-02-13T10:11:35;1.50;62.40
1455;DHT22;721;48.168;12.818;2023-02-13T10:14:12;1.50;63.70
1455;DHT22;721;48.168;12.818;2023-02-13T10:16:44;1.50;63.10
1455;DHT22;721;48.168;12.818;2023-02-13T10:19:31;1.50;64.20
1455;DHT22;721;48.168;12.818;2023-02-13T10:22:04;1.60;67.20
1455;DHT22;721;48.168;12.818;2023-02-13T10:24:36;1.80;65.20
1455;DHT22;721;48.168;12.818;2023-02-13T10:27:18;1.80;64.10
1455;DHT22;721;48.168;12.818;2023-02-13T10:29:54;1.70;64.60
1455;DHT22;721;48.168;12.818;2023-02-13T10:32:44;1.80;64.60
1455;DHT22;721;48.168;12.818;2023-02-13T10:35:19;1.80;64.10
1455;DHT22;721;48.168;12.818;2023-02-13T10:37:49;2.00;62.80
1455;DHT22;721;48.168;12.818;2023-02-13T10:40:18;2.00;62.40
1455;DHT22;721;48.168;12.818;2023-02-13T10:42:46;2.00;59.70
1455;DHT22;721;48.168;12.818;2023-02-13T10:45:35;2.00;59.60
1455;DHT22;721;48.168;12.818;2023-02-13T10:48:23;2.20;57.90
1455;DHT22;721;48.168;12.818;2023-02-13T10:50:59;2.20;58.40
1455;DHT22;721;48.168;12.818;2023-02-13T10:53:46;2.10;57.10
1455;DHT22;721;48.168;12.818;2023-02-13T10:56:22;2.10;55.60
1455;DHT22;721;48.168;12.818;2023-02-13T10:59:00;2.20;55.60
1455;DHT22;721;48.168;12.818;2023-02-13T11:01:34;2.30;56.50
1455;DHT22;721;48.168;12.818;2023-02-13T11:04:22;2.40;54.60
1455;DHT22;721;48.168;12.818;2023-02-13T11:06:54;2.40;54.90
1455;DHT22;721;48.168;12.818;2023-02-13T11:09:21;2.30;53.90
1455;DHT22;721;48.168;12.818;2023-02-13T11:11:48;2.40;55.10
1455;DHT22;721;48.168;12.818;2023-02-13T11:14:16;2.30;53.30
1455;DHT22;721;48.168;12.818;2023-02-13T11:19:38;2.30;55.40
1455;DHT22;721;48.168;12.818;2023-02-13T11:22:13;2.30;57.70
1455;DHT22;721;48.168;12.818;2023-02-13T11:24:49;2.30;56.50
1455;DHT22;721;48.168;12.818;2023-02-13T11:27:22;2.40;55.20
1455;DHT22;721;48.168;12.818;2023-02-13T11:30:05;2.60;56.10
1455;DHT22;721;48.168;12.818;2023-02-13T11:32:33;2.70;54.10
1455;DHT22;721;48.168;12.818;2023-02-13T11:35:26;2.70;53.70
1455;DHT22;721;48.168;12.818;2023-02-13T11:38:20;2.90;54.50
1455;DHT22;721;48.168;12.818;2023-02-13T11:40:50;3.20;52.10
1455;DHT22;721;48.168;12.818;2023-02-13T11:43:23;3.20;49.50
1455;DHT22;721;48.168;12.818;2023-02-13T11:46:01;3.40;49.00
1455;DHT22;721;48.168;12.818;2023-02-13T11:48:28;3.00;47.10
1455;DHT22;721;48.168;12.818;2023-02-13T11:50:57;3.00;50.00
1455;DHT22;721;48.168;12.818;2023-02-13T11:53:26;3.10;47.40
1455;DHT22;721;48.168;12.818;2023-02-13T11:56:02;3.20;47.60
1455;DHT22;721;48.168;12.818;2023-02-13T11:58:30;3.10;49.20
1455;DHT22;721;48.168;12.818;2023-02-13T12:01:10;3.10;51.10
1455;DHT22;721;48.168;12.818;2023-02-13T12:03:37;3.00;51.20
1455;DHT22;721;48.168;12.818;2023-02-13T12:06:12;3.00;54.60
1455;DHT22;721;48.168;12.818;2023-02-13T12:08:42;2.70;55.30
1455;DHT22;721;48.168;12.818;2023-02-13T12:11:19;2.90;57.00
1455;DHT22;721;48.168;12.818;2023-02-13T12:13:48;3.10;56.40
1455;DHT22;721;48.168;12.818;2023-02-13T12:16:22;3.20;54.10
1455;DHT22;721;48.168;12.818;2023-02-13T12:18:52;3.00;56.40
1455;DHT22;721;48.168;12.818;2023-02-13T12:21:35;3.30;52.50
1455;DHT22;721;48.168;12.818;2023-02-13T12:24:14;3.30;50.40
1455;DHT22;721;48.168;12.818;2023-02-13T12:26:47;3.30;52.70
1455;DHT22;721;48.168;12.818;2023-02-13T12:29:32;3.40;49.70
1455;DHT22;721;48.168;12.818;2023-02-13T12:32:18;3.50;52.40
1455;DHT22;721;48.168;12.818;2023-02-13T12:34:59;3.60;50.00
1455;DHT22;721;48.168;12.818;2023-02-13T12:37:58;3.70;46.10
1455;DHT22;721;48.168;12.818;2023-02-13T12:40:49;3.60;48.30
1455;DHT22;721;48.168;12.818;2023-02-13T12:43:39;3.70;50.00
1455;DHT22;721;48.168;12.818;2023-02-13T12:46:16;3.80;46.20
1455;DHT22;721;48.168;12.818;2023-02-13T12:48:53;3.70;45.50
1455;DHT22;721;48.168;12.818;2023-02-13T12:51:42;3.80;47.10
1455;DHT22;721;48.168;12.818;2023-02-13T12:54:32;3.90;47.60
1455;DHT22;721;48.168;12.818;2023-02-13T12:57:10;4.10;47.00
1455;DHT22;721;48.168;12.818;2023-02-13T12:59:57;4.10;46.50
1455;DHT22;721;48.168;12.818;2023-02-13T13:02:55;4.00;45.60
1455;DHT22;721;48.168;12.818;2023-02-13T13:05:29;3.80;47.30
1455;DHT22;721;48.168;12.818;2023-02-13T13:08:21;3.80;50.80
1455;DHT22;721;48.168;12.818;2023-02-13T13:11:02;3.70;49.60
1455;DHT22;721;48.168;12.818;2023-02-13T13:13:41;3.40;51.20
1455;DHT22;721;48.168;12.818;2023-02-13T13:16:19;3.50;53.60
1455;DHT22;721;48.168;12.818;2023-02-13T13:18:57;3.40;52.80
1455;DHT22;721;48.168;12.818;2023-02-13T13:21:36;3.50;54.70
1455;DHT22;721;48.168;12.818;2023-02-13T13:24:08;3.70;53.70
1455;DHT22;721;48.168;12.818;2023-02-13T13:26:43;3.90;52.60
1455;DHT22;721;48.168;12.818;2023-02-13T13:29:16;4.10;49.60
1455;DHT22;721;48.168;12.818;2023-02-13T13:31:48;4.20;46.70
1455;DHT22;721;48.168;12.818;2023-02-13T13:34:21;4.10;46.50
1455;DHT22;721;48.168;12.818;2023-02-13T13:36:53;4.00;47.70
1455;DHT22;721;48.168;12.818;2023-02-13T13:39:32;4.20;45.50
1455;DHT22;721;48.168;12.818;2023-02-13T13:42:08;4.00;46.60
1455;DHT22;721;48.168;12.818;2023-02-13T13:44:55;4.10;45.70
1455;DHT22;721;48.168;12.818;2023-02-13T13:47:36;4.30;45.50
1455;DHT22;721;48.168;12.818;2023-02-13T13:50:18;4.40;42.00
1455;DHT22;721;48.168;12.818;2023-02-13T13:56:07;4.40;38.70
1455;DHT22;721;48.168;12.818;2023-02-13T13:58:38;4.30;38.90
1455;DHT22;721;48.168;12.818;2023-02-13T14:01:21;4.20;41.00
1455;DHT22;721;48.168;12.818;2023-02-13T14:03:49;4.00;42.90
1455;DHT22;721;48.168;12.818;2023-02-13T14:06:17;3.90;46.20
1455;DHT22;721;48.168;12.818;2023-02-13T14:11:51;4.20;45.70
1455;DHT22;721;48.168;12.818;2023-02-13T14:14:50;4.10;44.20
1455;DHT22;721;48.168;12.818;2023-02-13T14:17:51;4.10;46.60
1455;DHT22;721;48.168;12.818;2023-02-13T14:20:37;4.20;44.50
1455;DHT22;721;48.168;12.818;2023-02-13T14:23:18;4.30;44.10
1455;DHT22;721;48.168;12.818;2023-02-13T14:25:48;4.20;41.70
1455;DHT22;721;48.168;12.818;2023-02-13T14:28:21;4.30;39.50
1455;DHT22;721;48.168;12.818;2023-02-13T14:30:51;4.20;40.50
1455;DHT22;721;48.168;12.818;2023-02-13T14:33:24;4.20;40.10
1455;DHT22;721;48.168;12.818;2023-02-13T14:35:59;4.00;43.20
1455;DHT22;721;48.168;12.818;2023-02-13T14:38:26;3.70;47.80
1455;DHT22;721;48.168;12.818;2023-02-13T14:40:54;3.60;50.40
1455;DHT22;721;48.168;12.818;2023-02-13T14:43:36;3.40;51.30
1455;DHT22;721;48.168;12.818;2023-02-13T14:46:28;3.30;55.00
1455;DHT22;721;48.168;12.818;2023-02-13T14:49:01;3.30;56.30
1455;DHT22;721;48.168;12.818;2023-02-13T14:51:34;3.20;55.20
1455;DHT22;721;48.168;12.818;2023-02-13T14:54:06;3.10;58.70
1455;DHT22;721;48.168;12.818;2023-02-13T14:56:36;3.30;56.00
1455;DHT22;721;48.168;12.818;2023-02-13T14:59:13;3.20;56.70
1455;DHT22;721;48.168;12.818;2023-02-13T15:01:45;3.00;58.10
1455;DHT22;721;48.168;12.818;2023-02-13T15:04:18;3.00;58.50
1455;DHT22;721;48.168;12.818;2023-02-13T15:06:48;3.20;57.50
1455;DHT22;721;48.168;12.818;2023-02-13T15:09:29;3.20;56.70
1455;DHT22;721;48.168;12.818;2023-02-13T15:11:57;3.20;58.60
1455;DHT22;721;48.168;12.818;2023-02-13T15:14:31;3.50;57.40
1455;DHT22;721;48.168;12.818;2023-02-13T15:17:03;3.70;54.10
1455;DHT22;721;48.168;12.818;2023-02-13T15:19:34;3.70;51.60
1455;DHT22;721;48.168;12.818;2023-02-13T15:22:03;3.70;50.20
1455;DHT22;721;48.168;12.818;2023-02-13T15:24:34;3.80;49.50
1455;DHT22;721;48.168;12.818;2023-02-13T15:27:04;3.90;46.30
1455;DHT22;721;48.168;12.818;2023-02-13T15:29:32;3.90;46.60
1455;DHT22;721;48.168;12.818;2023-02-13T15:32:00;3.70;50.20
1455;DHT22;721;48.168;12.818;2023-02-13T15:34:46;3.50;54.00
1455;DHT22;721;48.168;12.818;2023-02-13T15:37:20;3.60;53.10
1455;DHT22;721;48.168;12.818;2023-02-13T15:39:47;3.70;51.60
1455;DHT22;721;48.168;12.818;2023-02-13T15:42:13;3.70;52.30
1455;DHT22;721;48.168;12.818;2023-02-13T15:44:44;3.80;51.70
1455;DHT22;721;48.168;12.818;2023-02-13T15:47:25;3.70;50.00
1455;DHT22;721;48.168;12.818;2023-02-13T15:49:52;3.80;50.00
1455;DHT22;721;48.168;12.818;2023-02-13T15:52:26;3.80;50.30
1455;DHT22;721;48.168;12.818;2023-02-13T15:54:55;3.90;48.30
1455;DHT22;721;48.168;12.818;2023-02-13T15:57:23;3.60;51.30
1455;DHT22;721;48.168;12.818;2023-02-13T15:59:51;3.40;55.70
1455;DHT22;721;48.168;12.818;2023-02-13T16:02:22;3.30;56.30
1455;DHT22;721;48.168;12.818;2023-02-13T16:04:52;3.30;58.00
1455;DHT22;721;48.168;12.818;2023-02-13T16:07:20;3.20;59.30
1455;DHT22;721;48.168;12.818;2023-02-13T16:09:46;3.30;56.20
1455;DHT22;721;48.168;12.818;2023-02-13T16:12:18;3.10;60.00
1455;DHT22;721;48.168;12.818;2023-02-13T16:14:50;3.00;59.50
1455;DHT22;721;48.168;12.818;2023-02-13T16:17:25;2.90;61.80
1455;DHT22;721;48.168;12.818;2023-02-13T16:19:56;2.90;63.00
1455;DHT22;721;48.168;12.818;2023-02-13T16:22:30;2.70;64.20
1455;DHT22;721;48.168;12.818;2023-02-13T16:27:47;2.80;66.60
1455;DHT22;721;48.168;12.818;2023-02-13T16:30:32;2.90;65.80
1455;DHT22;721;48.168;12.818;2023-02-13T16:33:19;3.00;64.10
1455;DHT22;721;48.168;12.818;2023-02-13T16:35:48;3.10;60.10
1455;DHT22;721;48.168;12.818;2023-02-13T16:38:31;3.00;62.70
1455;DHT22;721;48.168;12.818;2023-02-13T16:41:00;3.00;61.10
1455;DHT22;721;48.168;12.818;2023-02-13T16:43:35;3.00;61.70
1455;DHT22;721;48.168;12.818;2023-02-13T16:46:10;3.10;61.50
1455;DHT22;721;48.168;12.818;2023-02-13T16:48:39;3.20;60.60
1455;DHT22;721;48.168;12.818;2023-02-13T16:51:06;3.30;58.70
1455;DHT22;721;48.168;12.818;2023-02-13T16:53:33;3.20;59.30
1455;DHT22;721;48.168;12.818;2023-02-13T16:56:02;3.20;61.50
1455;DHT22;721;48.168;12.818;2023-02-13T16:58:29;3.20;60.80
1455;DHT22;721;48.168;12.818;2023-02-13T17:00:56;3.30;60.00
1455;DHT22;721;48.168;12.818;2023-02-13T17:03:23;3.30;59.80
1455;DHT22;721;48.168;12.818;2023-02-13T17:05:51;3.30;58.70
1455;DHT22;721;48.168;12.818;2023-02-13T17:08:19;3.30;59.60
1455;DHT22;721;48.168;12.818;2023-02-13T17:11:02;3.30;59.50
1455;DHT22;721;48.168;12.818;2023-02-13T17:13:29;3.40;59.00